createdAt,value
2019-03-24T00:01:46.715Z,98856.25
2019-03-24T00:04:16.877Z,98854.62
2019-03-24T00:06:46.890Z,98852.74
2019-03-24T00:09:16.806Z,98862.42
2019-03-24T00:11:47.004Z,98860.53
2019-03-24T00:14:16.965Z,98857.32
2019-03-24T00:16:47.259Z,98854.08
2019-03-24T00:19:17.444Z,98851.39
2019-03-24T00:21:47.424Z,98854.89
2019-03-24T00:24:17.533Z,98854.61
2019-03-24T00:26:47.932Z,98855.16
2019-03-24T00:29:18.101Z,98858.66
2019-03-24T00:31:48.329Z,98850.03
2019-03-24T00:34:18.376Z,98853.81
2019-03-24T00:36:48.304Z,98843.30
2019-03-24T00:39:18.370Z,98841.41
2019-03-24T00:41:48.521Z,98844.38
2019-03-24T00:44:18.462Z,98845.71
2019-03-24T00:46:48.507Z,98844.09
2019-03-24T00:49:18.521Z,98847.32
2019-03-24T00:51:48.517Z,98850.81
2019-03-24T00:54:18.627Z,98855.41
2019-03-24T00:56:48.582Z,98851.61
2019-03-24T00:59:18.887Z,98844.05
2019-03-24T01:01:48.839Z,98840.83
2019-03-24T01:05:12.743Z,98840.83
2019-03-24T01:07:43.215Z,98841.91
2019-03-24T01:10:14.162Z,98837.86
2019-03-24T01:12:44.453Z,98835.70
2019-03-24T01:15:14.908Z,98818.44
2019-03-24T01:17:45.383Z,98818.44
2019-03-24T01:20:17.066Z,98830.03
2019-03-24T01:22:47.194Z,98826.55
2019-03-24T01:25:17.326Z,98829.77
2019-03-24T01:27:47.316Z,98824.88
2019-03-24T01:30:17.651Z,98828.13
2019-03-24T01:32:47.682Z,98819.20
2019-03-24T01:35:17.603Z,98819.20
2019-03-24T01:37:47.745Z,98820.55
2019-03-24T01:40:17.919Z,98804.39
2019-03-24T01:42:48.151Z,98804.39
2019-03-24T01:45:18.114Z,98807.62
2019-03-24T01:47:48.296Z,98809.20
2019-03-24T01:50:18.543Z,98805.71
2019-03-24T01:52:48.689Z,98801.11
2019-03-24T01:55:18.765Z,98796.23
2019-03-24T01:57:48.894Z,98796.23
2019-03-24T02:00:19.183Z,98795.44
2019-03-24T02:02:49.123Z,98795.44
2019-03-24T02:05:19.376Z,98801.65
2019-03-24T02:07:49.341Z,98801.65
2019-03-24T02:10:19.820Z,98806.39
2019-03-24T02:12:49.800Z,98800.78
2019-03-24T02:15:19.921Z,98800.78
2019-03-24T02:17:49.936Z,98805.62
2019-03-24T02:20:19.951Z,98805.62
2019-03-24T02:22:49.975Z,98807.46
2019-03-24T02:25:20.160Z,98808.46
2019-03-24T02:27:50.196Z,98799.67
2019-03-24T02:30:20.431Z,98799.67
2019-03-24T02:32:50.718Z,98787.73
2019-03-24T02:35:20.779Z,98787.73
2019-03-24T02:37:50.787Z,98796.95
2019-03-24T02:40:20.937Z,98793.95
2019-03-24T02:42:50.929Z,98791.00
2019-03-24T02:45:21.057Z,98796.91
2019-03-24T02:47:51.071Z,98796.91
2019-03-24T02:50:21.074Z,98793.14
2019-03-24T02:52:51.422Z,98794.48
2019-03-24T02:55:21.632Z,98790.64
2019-03-24T02:57:51.765Z,98785.84
2019-03-24T03:00:21.996Z,98784.77
2019-03-24T03:02:52.310Z,98795.48
2019-03-24T03:05:22.228Z,98795.48
2019-03-24T03:07:52.257Z,98780.44
2019-03-24T03:10:22.251Z,98787.16
2019-03-24T03:12:52.376Z,98776.59
2019-03-24T03:15:22.299Z,98776.59
2019-03-24T03:17:52.328Z,98780.36
2019-03-24T03:20:22.348Z,98780.36
2019-03-24T03:22:52.265Z,98780.27
2019-03-24T03:25:22.283Z,98779.23
2019-03-24T03:27:52.271Z,98779.23
2019-03-24T03:30:22.242Z,98771.67
2019-03-24T03:32:52.236Z,98771.67
2019-03-24T03:35:22.346Z,98777.73
2019-03-24T03:37:52.325Z,98777.73
2019-03-24T03:40:22.347Z,98770.81
2019-03-24T03:42:52.295Z,98769.42
2019-03-24T03:45:29.393Z,98767.86
2019-03-24T03:47:59.386Z,98771.05
2019-03-24T03:50:29.335Z,98779.05
2019-03-24T03:52:59.376Z,98779.63
2019-03-24T03:55:29.321Z,98768.61
2019-03-24T03:57:59.251Z,98781.66
2019-03-24T04:00:36.487Z,98781.66
2019-03-24T04:03:07.667Z,98775.22
2019-03-24T04:05:37.653Z,98777.62
2019-03-24T04:08:07.924Z,98778.70
2019-03-24T04:10:37.865Z,98768.99
2019-03-24T04:13:07.867Z,98768.99
2019-03-24T04:15:37.832Z,98765.17
2019-03-24T04:18:07.961Z,98770.81
2019-03-24T04:20:37.886Z,98767.86
2019-03-24T04:23:07.974Z,98768.13
2019-03-24T04:25:37.994Z,98768.13
2019-03-24T04:28:07.951Z,98759.53
2019-03-24T04:30:37.889Z,98764.47
2019-03-24T04:33:08.045Z,98764.47
2019-03-24T04:35:38.106Z,98760.62
2019-03-24T04:38:08.168Z,98750.63
2019-03-24T04:40:38.123Z,98755.92
2019-03-24T04:43:08.082Z,98760.69
2019-03-24T04:45:38.097Z,98750.74
2019-03-24T04:48:08.155Z,98746.13
2019-03-24T04:50:38.193Z,98751.75
2019-03-24T04:53:08.340Z,98751.77
2019-03-24T04:55:38.478Z,98752.31
2019-03-24T04:58:08.469Z,98756.31
2019-03-24T05:00:40.096Z,98749.08
2019-03-24T05:03:10.109Z,98748.29
2019-03-24T05:05:40.827Z,98753.11
2019-03-24T05:08:13.495Z,98750.67
2019-03-24T05:10:43.465Z,98746.33
2019-03-24T05:13:13.609Z,98751.22
2019-03-24T05:15:43.512Z,98751.16
2019-03-24T05:18:13.566Z,98751.16
2019-03-24T05:20:43.513Z,98748.53
2019-03-24T05:23:13.421Z,98747.33
2019-03-24T05:25:43.716Z,98744.09
2019-03-24T05:28:13.929Z,98740.56
2019-03-24T05:30:43.839Z,98746.78
2019-03-24T05:33:13.875Z,98747.39
2019-03-24T05:35:44.067Z,98747.60
2019-03-24T05:38:14.176Z,98752.75
2019-03-24T05:40:44.410Z,98746.07
2019-03-24T05:43:14.456Z,98741.04
2019-03-24T05:45:44.403Z,98739.34
2019-03-24T05:48:14.747Z,98736.66
2019-03-24T05:50:44.768Z,98738.28
2019-03-24T05:53:14.786Z,98741.89
2019-03-24T05:55:44.823Z,98740.78
2019-03-24T05:58:14.754Z,98734.53
2019-03-24T06:00:44.754Z,98741.89
2019-03-24T06:03:14.815Z,98738.88
2019-03-24T06:05:44.743Z,98740.56
2019-03-24T06:08:14.784Z,98733.05
2019-03-24T06:10:44.828Z,98737.61
2019-03-24T06:13:15.034Z,98735.25
2019-03-24T06:15:44.973Z,98744.65
2019-03-24T06:18:14.965Z,98744.13
2019-03-24T06:20:44.897Z,98744.70
2019-03-24T06:23:14.999Z,98748.21
2019-03-24T06:25:45.043Z,98743.37
2019-03-24T06:28:14.992Z,98750.34
2019-03-24T06:30:45.292Z,98746.19
2019-03-24T06:33:15.311Z,98743.05
2019-03-24T06:35:45.394Z,98738.61
2019-03-24T06:38:15.435Z,98738.95
2019-03-24T06:40:45.460Z,98736.74
2019-03-24T06:43:15.557Z,98734.31
2019-03-24T06:45:45.529Z,98734.32
2019-03-24T06:48:15.470Z,98733.45
2019-03-24T06:50:45.433Z,98733.80
2019-03-24T06:53:15.422Z,98736.92
2019-03-24T06:55:45.382Z,98743.23
2019-03-24T06:58:15.913Z,98743.23
2019-03-24T07:00:45.830Z,98742.63
2019-03-24T07:03:15.926Z,98745.95
2019-03-24T07:05:46.029Z,98747.62
2019-03-24T07:08:15.955Z,98751.48
2019-03-24T07:10:45.871Z,98751.48
2019-03-24T07:13:16.022Z,98735.14
2019-03-24T07:15:46.195Z,98742.21
2019-03-24T07:18:16.218Z,98741.14
2019-03-24T07:20:46.266Z,98741.14
2019-03-24T07:23:16.454Z,98745.17
2019-03-24T07:25:46.421Z,98741.95
2019-03-24T07:28:16.309Z,98741.95
2019-03-24T07:30:46.343Z,98741.02
2019-03-24T07:33:16.351Z,98745.11
2019-03-24T07:35:46.468Z,98745.11
2019-03-24T07:38:16.495Z,98741.08
2019-03-24T07:40:46.506Z,98741.08
2019-03-24T07:43:16.718Z,98739.22
2019-03-24T07:45:46.624Z,98739.22
2019-03-24T07:48:19.404Z,98746.48
2019-03-24T07:50:48.605Z,98739.27
2019-03-24T07:53:18.603Z,98735.50
2019-03-24T07:55:48.660Z,98735.50
2019-03-24T07:58:18.649Z,98742.81
2019-03-24T08:00:48.650Z,98740.43
2019-03-24T08:03:18.689Z,98740.43
2019-03-24T08:05:48.718Z,98737.20
2019-03-24T08:08:18.635Z,98732.91
2019-03-24T08:10:48.529Z,98741.00
2019-03-24T08:13:18.566Z,98745.27
2019-03-24T08:15:48.486Z,98741.47
2019-03-24T08:18:29.278Z,98729.08
2019-03-24T08:20:50.338Z,98728.28
2019-03-24T08:23:20.293Z,98730.43
2019-03-24T08:25:50.475Z,98724.19
2019-03-24T08:28:20.402Z,98715.22
2019-03-24T08:30:50.358Z,98718.11
2019-03-24T08:33:20.253Z,98714.38
2019-03-24T08:35:50.284Z,98706.79
2019-03-24T08:38:20.208Z,98712.48
2019-03-24T08:40:50.299Z,98712.65
2019-03-24T08:43:20.297Z,98716.47
2019-03-24T08:45:50.213Z,98711.66
2019-03-24T08:48:20.166Z,98699.20
2019-03-24T08:50:50.083Z,98699.92
2019-03-24T08:53:20.288Z,98686.38
2019-03-24T08:55:50.293Z,98686.86
2019-03-24T08:58:20.223Z,98680.84
2019-03-24T09:00:50.233Z,98673.44
2019-03-24T09:03:20.336Z,98676.44
2019-03-24T09:05:50.265Z,98668.63
2019-03-24T09:08:20.318Z,98665.30
2019-03-24T09:10:50.316Z,98664.45
2019-03-24T09:13:20.317Z,98661.81
2019-03-24T09:15:50.328Z,98654.88
2019-03-24T09:18:20.241Z,98661.77
2019-03-24T09:20:50.394Z,98658.39
2019-03-24T09:23:20.308Z,98652.78
2019-03-24T09:25:50.223Z,98652.08
2019-03-24T09:28:21.230Z,98649.63
2019-03-24T09:30:51.145Z,98640.59
2019-03-24T09:33:21.080Z,98641.23
2019-03-24T09:35:51.283Z,98631.58
2019-03-24T09:38:21.239Z,98633.02
2019-03-24T09:40:51.186Z,98631.33
2019-03-24T09:43:21.331Z,98625.45
2019-03-24T09:45:51.265Z,98625.91
2019-03-24T09:48:21.294Z,98625.06
2019-03-24T09:50:51.415Z,98624.97
2019-03-24T09:53:21.554Z,98617.26
2019-03-24T09:55:51.670Z,98613.95
2019-03-24T09:58:21.743Z,98611.66
2019-03-24T10:00:51.696Z,98604.97
2019-03-24T10:03:22.084Z,98601.67
2019-03-24T10:05:52.133Z,98594.91
2019-03-24T10:08:22.250Z,98591.11
2019-03-24T10:10:52.272Z,98595.16
2019-03-24T10:13:22.296Z,98592.36
2019-03-24T10:15:52.250Z,98586.12
2019-03-24T10:18:22.250Z,98580.96
2019-03-24T10:20:52.219Z,98583.67
2019-03-24T10:23:22.351Z,98571.73
2019-03-24T10:25:52.370Z,98574.17
2019-03-24T10:28:22.322Z,98567.94
2019-03-24T10:30:52.230Z,98559.97
2019-03-24T10:33:22.203Z,98553.65
2019-03-24T10:35:52.173Z,98553.16
2019-03-24T10:38:22.345Z,98550.61
2019-03-24T10:40:52.288Z,98550.20
2019-03-24T10:43:22.204Z,98550.88
2019-03-24T10:45:52.324Z,98546.98
2019-03-24T10:48:33.122Z,98545.05
2019-03-24T10:50:54.410Z,98545.83
2019-03-24T10:53:24.407Z,98543.02
2019-03-24T10:55:54.352Z,98552.76
2019-03-24T10:58:24.296Z,98545.37
2019-03-24T11:00:54.440Z,98538.63
2019-03-24T11:03:24.402Z,98536.23
2019-03-24T11:05:54.322Z,98534.84
2019-03-24T11:08:24.255Z,98531.17
2019-03-24T11:10:54.312Z,98523.65
2019-03-24T11:13:24.290Z,98518.28
2019-03-24T11:15:54.195Z,98522.77
2019-03-24T11:18:24.159Z,98520.57
2019-03-24T11:20:54.102Z,98516.05
2019-03-24T11:23:24.043Z,98518.25
2019-03-24T11:25:54.035Z,98508.06
2019-03-24T11:28:24.053Z,98513.05
2019-03-24T11:30:54.013Z,98507.10
2019-03-24T11:33:23.930Z,98508.89
2019-03-24T11:35:53.902Z,98505.54
2019-03-24T11:38:23.830Z,98492.27
2019-03-24T11:40:53.757Z,98496.34
2019-03-24T11:43:23.965Z,98497.80
2019-03-24T11:45:54.046Z,98492.97
2019-03-24T11:48:24.207Z,98489.57
2019-03-24T11:50:54.383Z,98484.47
2019-03-24T11:53:24.332Z,98480.81
2019-03-24T11:55:54.357Z,98484.72
2019-03-24T11:58:24.455Z,98485.52
2019-03-24T12:00:54.410Z,98480.91
2019-03-24T12:03:25.501Z,98470.67
2019-03-24T12:05:55.562Z,98471.20
2019-03-24T12:08:25.873Z,98460.25
2019-03-24T12:10:55.982Z,98458.97
2019-03-24T12:13:26.016Z,98457.52
2019-03-24T12:15:56.023Z,98454.98
2019-03-24T12:18:26.168Z,98447.64
2019-03-24T12:20:56.185Z,98445.49
2019-03-24T12:23:26.156Z,98442.19
2019-03-24T12:25:56.084Z,98439.48
2019-03-24T12:28:26.123Z,98432.77
2019-03-24T12:30:56.127Z,98426.98
2019-03-24T12:33:26.130Z,98421.45
2019-03-24T12:35:56.282Z,98429.80
2019-03-24T12:38:26.887Z,98411.21
2019-03-24T12:40:58.594Z,98422.38
2019-03-24T12:43:28.691Z,98408.14
2019-03-24T12:45:59.079Z,98403.80
2019-03-24T12:48:29.226Z,98408.36
2019-03-24T12:50:59.306Z,98411.44
2019-03-24T12:53:29.379Z,98408.12
2019-03-24T12:55:59.293Z,98398.23
2019-03-24T12:58:29.213Z,98393.30
2019-03-24T13:00:59.155Z,98386.55
2019-03-24T13:03:29.121Z,98385.17
2019-03-24T13:05:59.061Z,98382.71
2019-03-24T13:08:28.978Z,98382.78
2019-03-24T13:10:59.135Z,98375.89
2019-03-24T13:13:29.082Z,98376.97
2019-03-24T13:15:59.008Z,98380.06
2019-03-24T13:18:29.027Z,98370.20
2019-03-24T13:20:59.143Z,98368.22
2019-03-24T13:23:29.155Z,98366.78
2019-03-24T13:25:59.174Z,98375.33
2019-03-24T13:28:29.153Z,98366.36
2019-03-24T13:30:59.195Z,98367.50
2019-03-24T13:33:29.124Z,98375.66
2019-03-24T13:36:10.037Z,98372.47
2019-03-24T13:38:41.075Z,98371.86
2019-03-24T13:41:12.225Z,98376.07
2019-03-24T13:43:42.184Z,98371.48
2019-03-24T13:46:12.323Z,98374.40
2019-03-24T13:48:42.870Z,98370.78
2019-03-24T13:51:14.362Z,98384.09
2019-03-24T13:53:44.323Z,98374.66
2019-03-24T13:56:14.266Z,98374.13
2019-03-24T13:58:44.444Z,98368.00
2019-03-24T14:01:14.908Z,98366.58
2019-03-24T14:03:44.899Z,98359.61
2019-03-24T14:06:14.858Z,98355.61
2019-03-24T14:08:44.825Z,98351.23
2019-03-24T14:11:14.829Z,98350.23
2019-03-24T14:13:44.876Z,98350.56
2019-03-24T14:16:14.891Z,98345.45
2019-03-24T14:18:44.911Z,98351.92
2019-03-24T14:21:15.020Z,98349.77
2019-03-24T14:23:44.973Z,98354.81
2019-03-24T14:26:14.948Z,98354.19
2019-03-24T14:28:44.969Z,98352.37
2019-03-24T14:31:14.919Z,98356.37
2019-03-24T14:33:44.916Z,98359.52
2019-03-24T14:36:14.877Z,98352.12
2019-03-24T14:38:44.939Z,98357.83
2019-03-24T14:41:15.061Z,98355.88
2019-03-24T14:43:44.980Z,98362.80
2019-03-24T14:46:14.976Z,98365.94
2019-03-24T14:48:45.023Z,98365.20
2019-03-24T14:51:15.105Z,98359.14
2019-03-24T14:53:45.175Z,98363.37
2019-03-24T14:56:15.181Z,98359.55
2019-03-24T14:58:45.322Z,98359.37
2019-03-24T15:01:15.307Z,98362.81
2019-03-24T15:03:45.329Z,98372.98
2019-03-24T15:06:15.285Z,98375.94
2019-03-24T15:08:45.263Z,98382.12
2019-03-24T15:11:15.206Z,98377.44
2019-03-24T15:13:45.369Z,98372.70
2019-03-24T15:16:15.695Z,98370.91
2019-03-24T15:18:45.662Z,98382.34
2019-03-24T15:21:15.611Z,98384.53
2019-03-24T15:23:45.686Z,98390.95
2019-03-24T15:26:15.877Z,98379.86
2019-03-24T15:28:45.906Z,98391.07
2019-03-24T15:31:15.823Z,98390.58
2019-03-24T15:33:45.980Z,98384.63
2019-03-24T15:36:15.982Z,98378.72
2019-03-24T15:38:46.083Z,98385.36
2019-03-24T15:41:18.320Z,98378.45
2019-03-24T15:43:47.874Z,98382.55
2019-03-24T15:46:17.973Z,98384.50
2019-03-24T15:48:50.117Z,98379.08
2019-03-24T15:51:19.757Z,98386.72
2019-03-24T15:53:49.706Z,98387.70
2019-03-24T15:56:19.699Z,98396.38
2019-03-24T15:58:49.745Z,98391.86
2019-03-24T16:01:19.763Z,98411.41
2019-03-24T16:03:50.041Z,98401.28
2019-03-24T16:06:20.285Z,98394.25
2019-03-24T16:08:50.379Z,98401.19
2019-03-24T16:11:20.338Z,98400.72
2019-03-24T16:13:50.514Z,98408.45
2019-03-24T16:16:22.873Z,98412.84
2019-03-24T16:18:52.539Z,98407.55
2019-03-24T16:21:27.778Z,98401.45
2019-03-24T16:23:54.177Z,98403.33
2019-03-24T16:26:24.139Z,98409.60
2019-03-24T16:28:54.196Z,98409.84
2019-03-24T16:31:24.237Z,98405.05
2019-03-24T16:33:54.493Z,98403.39
2019-03-24T16:36:24.646Z,98395.94
2019-03-24T16:39:03.142Z,98403.91
2019-03-24T16:41:26.303Z,98417.68
2019-03-24T16:43:56.396Z,98406.98
2019-03-24T16:46:26.391Z,98400.98
2019-03-24T16:48:56.324Z,98389.89
2019-03-24T16:51:26.263Z,98398.42
2019-03-24T16:53:56.245Z,98394.75
2019-03-24T16:56:26.337Z,98398.28
2019-03-24T16:58:56.562Z,98399.94
2019-03-24T17:01:26.555Z,98399.52
2019-03-24T17:03:56.826Z,98403.27
2019-03-24T17:06:26.766Z,98404.74
2019-03-24T17:08:56.794Z,98401.67
2019-03-24T17:11:26.773Z,98403.38
2019-03-24T17:13:56.905Z,98398.13
2019-03-24T17:16:26.896Z,98396.45
2019-03-24T17:18:56.856Z,98403.94
2019-03-24T17:21:26.835Z,98404.22
2019-03-24T17:23:56.857Z,98413.00
2019-03-24T17:26:26.817Z,98413.79
2019-03-24T17:28:57.786Z,98405.73
2019-03-24T17:31:27.972Z,98415.06
2019-03-24T17:33:58.227Z,98419.17
2019-03-24T17:36:29.791Z,98408.80
2019-03-24T17:39:00.031Z,98413.82
2019-03-24T17:41:29.949Z,98420.32
2019-03-24T17:44:03.434Z,98414.32
2019-03-24T17:46:31.918Z,98407.79
2019-03-24T17:49:03.813Z,98411.09
2019-03-24T17:51:34.002Z,98419.94
2019-03-24T17:54:04.071Z,98416.99
2019-03-24T17:56:34.089Z,98421.67
2019-03-24T17:59:04.060Z,98427.04
2019-03-24T18:01:35.499Z,98420.20
2019-03-24T18:04:05.519Z,98420.82
2019-03-24T18:06:35.444Z,98429.84
2019-03-24T18:09:08.182Z,98424.05
2019-03-24T18:11:38.194Z,98430.92
2019-03-24T18:14:08.407Z,98434.47
2019-03-24T18:16:38.324Z,98439.17
2019-03-24T18:19:08.282Z,98437.83
2019-03-24T18:21:38.444Z,98439.83
2019-03-24T18:24:08.565Z,98441.61
2019-03-24T18:26:38.602Z,98441.42
2019-03-24T18:29:08.678Z,98446.82
2019-03-24T18:31:38.735Z,98446.95
2019-03-24T18:34:08.655Z,98446.23
2019-03-24T18:36:38.670Z,98447.02
2019-03-24T18:39:10.250Z,98452.61
2019-03-24T18:41:40.325Z,98456.83
2019-03-24T18:44:10.358Z,98461.42
2019-03-24T18:46:40.401Z,98459.63
2019-03-24T18:49:10.590Z,98458.77
2019-03-24T18:51:40.654Z,98460.38
2019-03-24T18:54:10.619Z,98455.17
2019-03-24T18:56:40.555Z,98460.18
2019-03-24T18:59:10.528Z,98459.08
2019-03-24T19:01:40.487Z,98456.13
2019-03-24T19:04:10.411Z,98456.02
2019-03-24T19:06:40.341Z,98448.19
2019-03-24T19:09:11.004Z,98449.52
2019-03-24T19:11:41.029Z,98443.57
2019-03-24T19:14:11.183Z,98447.07
2019-03-24T19:16:41.187Z,98444.42
2019-03-24T19:19:11.217Z,98441.48
2019-03-24T19:21:41.136Z,98433.38
2019-03-24T19:24:11.147Z,98433.06
2019-03-24T19:26:41.069Z,98436.91
2019-03-24T19:29:11.283Z,98435.87
2019-03-24T19:31:41.410Z,98433.88
2019-03-24T19:34:11.399Z,98440.55
2019-03-24T19:36:42.557Z,98436.84
2019-03-24T19:39:12.567Z,98438.39
2019-03-24T19:41:42.614Z,98433.81
2019-03-24T19:44:12.585Z,98438.30
2019-03-24T19:46:42.753Z,98440.30
2019-03-24T19:49:13.226Z,98441.14
2019-03-24T19:51:43.456Z,98441.45
2019-03-24T19:54:13.516Z,98439.55
2019-03-24T19:56:43.607Z,98442.16
2019-03-24T19:59:13.586Z,98437.98
2019-03-24T20:01:43.727Z,98430.47
2019-03-24T20:04:13.954Z,98430.80
2019-03-24T20:06:44.091Z,98431.31
2019-03-24T20:09:14.716Z,98433.46
2019-03-24T20:11:44.661Z,98422.41
2019-03-24T20:14:14.859Z,98425.16
2019-03-24T20:16:45.106Z,98422.63
2019-03-24T20:19:15.096Z,98419.09
2019-03-24T20:21:45.145Z,98417.74
2019-03-24T20:24:15.128Z,98418.84
2019-03-24T20:26:45.066Z,98419.89
2019-03-24T20:29:14.997Z,98420.44
2019-03-24T20:31:45.323Z,98417.03
2019-03-24T20:34:15.417Z,98419.77
2019-03-24T20:36:45.358Z,98416.77
2019-03-24T20:39:15.426Z,98413.87
2019-03-24T20:41:45.428Z,98410.96
2019-03-24T20:44:15.416Z,98407.92
2019-03-24T20:46:45.559Z,98409.77
2019-03-24T20:49:15.668Z,98410.20
2019-03-24T20:51:45.685Z,98410.41
2019-03-24T20:54:15.863Z,98405.06
2019-03-24T20:56:45.840Z,98403.03
2019-03-24T20:59:15.847Z,98401.55
2019-03-24T21:01:46.029Z,98397.57
2019-03-24T21:04:16.054Z,98395.35
2019-03-24T21:06:46.276Z,98380.02
2019-03-24T21:09:16.287Z,98393.56
2019-03-24T21:11:46.328Z,98386.28
2019-03-24T21:14:16.275Z,98388.83
2019-03-24T21:16:46.620Z,98386.25
2019-03-24T21:19:16.669Z,98387.34
2019-03-24T21:21:46.612Z,98384.81
2019-03-24T21:24:16.738Z,98377.31
2019-03-24T21:26:46.823Z,98380.70
2019-03-24T21:29:16.863Z,98373.17
2019-03-24T21:31:47.029Z,98377.21
2019-03-24T21:34:17.090Z,98372.51
2019-03-24T21:36:47.192Z,98375.57
2019-03-24T21:39:17.216Z,98370.32
2019-03-24T21:41:47.402Z,98364.45
2019-03-24T21:44:17.382Z,98371.50
2019-03-24T21:46:47.483Z,98373.67
2019-03-24T21:49:17.670Z,98373.12
2019-03-24T21:51:47.768Z,98381.87
2019-03-24T21:54:17.732Z,98372.15
2019-03-24T21:56:47.788Z,98372.80
2019-03-24T21:59:17.930Z,98382.12
2019-03-24T22:01:47.909Z,98372.25
2019-03-24T22:04:17.946Z,98372.25
2019-03-24T22:06:48.129Z,98389.41
2019-03-24T22:09:18.197Z,98389.34
2019-03-24T22:11:48.255Z,98389.34
2019-03-24T22:14:18.467Z,98370.20
2019-03-24T22:16:48.601Z,98371.00
2019-03-24T22:19:18.558Z,98376.99
2019-03-24T22:21:48.665Z,98381.17
2019-03-24T22:24:18.658Z,98384.64
2019-03-24T22:26:48.687Z,98387.84
2019-03-24T22:29:18.715Z,98388.80
2019-03-24T22:31:48.792Z,98388.86
2019-03-24T22:34:18.956Z,98376.19
2019-03-24T22:36:49.160Z,98376.19
2019-03-24T22:39:19.363Z,98374.62
2019-03-24T22:41:49.425Z,98365.38
2019-03-24T22:44:19.488Z,98371.48
2019-03-24T22:46:49.950Z,98368.82
2019-03-24T22:49:19.963Z,98364.75
2019-03-24T22:51:49.997Z,98349.87
2019-03-24T22:54:19.919Z,98349.87
2019-03-24T22:56:50.055Z,98357.82
2019-03-24T22:59:20.039Z,98356.42
2019-03-24T23:01:50.189Z,98345.89
2019-03-24T23:04:20.162Z,98345.89
2019-03-24T23:06:50.137Z,98351.18
2019-03-24T23:09:20.297Z,98352.30
2019-03-24T23:11:50.236Z,98359.00
2019-03-24T23:14:20.273Z,98355.56
2019-03-24T23:16:50.190Z,98347.45
2019-03-24T23:19:20.259Z,98341.41
2019-03-24T23:21:50.393Z,98347.58
2019-03-24T23:24:20.416Z,98334.11
2019-03-24T23:26:50.454Z,98334.11
2019-03-24T23:29:20.442Z,98329.34
2019-03-24T23:31:50.408Z,98325.34
2019-03-24T23:34:20.565Z,98325.34
2019-03-24T23:36:50.480Z,98329.83
2019-03-24T23:39:20.620Z,98324.69
2019-03-24T23:41:50.823Z,98323.05
2019-03-24T23:44:20.752Z,98321.97
2019-03-24T23:46:50.878Z,98310.36
2019-03-24T23:49:21.476Z,98310.36
2019-03-24T23:51:51.503Z,98314.61
2019-03-24T23:54:26.866Z,98315.52
2019-03-24T23:56:53.116Z,98315.01
2019-03-24T23:59:23.026Z,98315.89
